Time;durP1;ratioP1;P1;durP2;ratioP2;P2;SDS_P1;SDS_P2;PMS_P1;PMS_P2;Temp;Humidity;BMP_temperature;BMP_pressure;BME280_temperature;BME280_humidity;BME280_pressure;Samples;Min_cycle;Max_cycle;Signal;HPM_P1;HPM_P2
2022/09/01 00:03:17;;;;;;;1.63;0.90;;;;;;;13.55;100.00;102330.22;10363096;28;20068;-83
2022/09/01 00:08:17;;;;;;;2.22;0.95;;;;;;;13.48;100.00;102324.81;10359607;28;20037;-82
2022/09/01 00:13:18;;;;;;;2.28;0.90;;;;;;;13.38;100.00;102316.25;10341559;28;20494;-84
2022/09/01 00:18:18;;;;;;;2.95;0.80;;;;;;;13.44;100.00;102326.38;10341117;28;20057;-83
2022/09/01 00:23:19;;;;;;;2.05;1.10;;;;;;;13.41;100.00;102324.06;10359076;28;20049;-83
2022/09/01 00:28:19;;;;;;;0.77;0.65;;;;;;;13.12;100.00;102285.16;10342176;28;20060;-82
2022/09/01 00:33:20;;;;;;;2.10;0.90;;;;;;;13.28;100.00;102315.97;10325883;28;20060;-82
2022/09/01 00:38:20;;;;;;;2.75;0.90;;;;;;;13.26;100.00;102329.19;10381703;28;20063;-80
2022/09/01 00:43:37;;;;;;;1.58;0.80;;;;;;;13.23;100.00;102316.69;10414907;28;20048;-83
2022/09/01 00:48:37;;;;;;;2.97;0.73;;;;;;;13.17;100.00;102314.00;10382060;28;20045;-82
2022/09/01 00:53:38;;;;;;;1.45;1.13;;;;;;;13.19;100.00;102333.94;10398949;28;20303;-82
2022/09/01 00:58:39;;;;;;;1.25;0.77;;;;;;;13.11;100.00;102322.16;10370807;28;20045;-82
2022/09/01 01:03:43;;;;;;;2.63;0.90;;;;;;;12.98;100.00;102316.84;10363335;28;20030;-83
2022/09/01 01:08:56;;;;;;;2.08;1.10;;;;;;;12.95;100.00;102311.78;10356405;28;20030;-83
2022/09/01 01:14:10;;;;;;;4.15;1.02;;;;;;;12.80;100.00;102297.56;10380940;28;20048;-83
2022/09/01 01:23:00;;;;;;;1.92;1.13;;;;;;;12.83;100.00;102308.13;10374796;28;20046;-83
2022/09/01 01:24:41;;;;;;;3.58;0.80;;;;;;;12.79;100.00;102315.19;10358973;28;20041;-83
2022/09/01 01:29:42;;;;;;;2.72;1.00;;;;;;;12.62;100.00;102296.50;10355319;28;20042;-83
2022/09/01 01:34:44;;;;;;;1.80;0.88;;;;;;;12.69;100.00;102321.28;10355225;28;20038;-83
2022/09/01 01:39:45;;;;;;;1.35;0.82;;;;;;;12.58;100.00;102300.81;10365054;28;20088;-83
2022/09/01 01:44:46;;;;;;;2.65;0.80;;;;;;;12.58;100.00;102299.97;10379766;28;20042;-83
2022/09/01 01:49:47;;;;;;;3.25;0.85;;;;;;;12.58;100.00;102313.78;10395932;28;20038;-83
2022/09/01 01:54:47;;;;;;;1.75;1.20;;;;;;;12.53;100.00;102314.50;10362740;28;20501;-82
2022/09/01 01:59:47;;;;;;;2.65;1.00;;;;;;;12.51;100.00;102311.13;10378805;28;20040;-82
2022/09/01 02:04:48;;;;;;;1.75;0.93;;;;;;;12.47;100.00;102310.72;10371409;28;20049;-82
2022/09/01 02:09:48;;;;;;;6.35;1.13;;;;;;;12.53;100.00;102325.53;10362162;28;20068;-83
2022/09/01 02:14:49;;;;;;;1.25;1.15;;;;;;;12.58;100.00;102327.59;10378943;28;20040;-81
2022/09/01 02:19:55;;;;;;;1.58;1.10;;;;;;;12.54;100.00;102320.84;10395623;28;20091;-82
2022/09/01 02:24:56;;;;;;;3.13;1.00;;;;;;;12.61;100.00;102316.94;10381100;28;20061;-83
2022/09/01 02:29:57;;;;;;;1.73;0.90;;;;;;;12.54;100.00;102307.88;10379860;28;20676;-81
2022/09/01 02:35:00;;;;;;;2.67;1.05;;;;;;;12.53;100.00;102306.19;10378517;28;20052;-82
2022/09/01 02:40:00;;;;;;;2.30;1.15;;;;;;;12.58;100.00;102311.84;10400258;28;20128;-82
2022/09/01 02:45:02;;;;;;;1.48;1.20;;;;;;;12.37;100.00;102291.09;10421031;28;20124;-82
2022/09/01 02:50:02;;;;;;;2.17;0.90;;;;;;;12.32;100.00;102299.25;10402477;28;20057;-82
2022/09/01 02:55:03;;;;;;;1.35;1.20;;;;;;;12.28;100.00;102307.16;10386416;28;20042;-80
2022/09/01 03:00:19;;;;;;;1.55;1.00;;;;;;;12.14;100.00;102282.69;10369298;28;20229;-82
2022/09/01 03:05:27;;;;;;;1.50;1.30;;;;;;;12.18;100.00;102301.31;10447645;28;20041;-81
2022/09/01 03:10:31;;;;;;;2.45;1.33;;;;;;;12.22;100.00;102308.06;10386318;28;20052;-82
2022/09/01 03:15:35;;;;;;;1.65;1.17;;;;;;;12.25;100.00;102312.28;10402452;28;20037;-82
2022/09/01 03:20:38;;;;;;;3.10;1.77;;;;;;;12.29;100.00;102313.50;10381686;28;20066;-83
2022/09/01 03:25:38;;;;;;;1.60;1.20;;;;;;;12.25;100.00;102304.00;10399772;28;20045;-83
2022/09/01 03:30:43;;;;;;;3.80;1.50;;;;;;;12.18;100.00;102290.28;10368635;28;20465;-83
2022/09/01 03:35:44;;;;;;;4.45;1.27;;;;;;;12.17;100.00;102291.34;10437783;28;20029;-83
2022/09/01 03:40:45;;;;;;;2.03;1.38;;;;;;;12.14;100.00;102289.03;10415515;28;20067;-83
2022/09/01 03:45:45;;;;;;;2.88;1.17;;;;;;;12.23;100.00;102297.84;10436482;28;20037;-82
2022/09/01 03:50:46;;;;;;;2.00;1.33;;;;;;;12.20;100.00;102296.41;10424566;28;20044;-82
2022/09/01 03:55:47;;;;;;;3.67;1.50;;;;;;;12.03;100.00;102270.47;10425272;28;20082;-83
2022/09/01 04:00:50;;;;;;;2.47;1.77;;;;;;;12.18;100.00;102286.69;10424520;28;20047;-82
2022/09/01 04:05:51;;;;;;;2.13;1.60;;;;;;;12.23;100.00;102286.81;10441588;28;20068;-82
2022/09/01 04:10:52;;;;;;;4.90;1.67;;;;;;;12.28;100.00;102307.16;10398249;28;20098;-82
2022/09/01 04:15:55;;;;;;;2.67;1.80;;;;;;;12.31;100.00;102295.63;10409878;28;20041;-82
2022/09/01 04:20:57;;;;;;;2.25;2.00;;;;;;;12.28;100.00;102279.53;10456473;28;20037;-82
2022/09/01 04:26:07;;;;;;;2.97;2.22;;;;;;;12.43;100.00;102286.56;10424249;28;20421;-83
2022/09/01 04:31:09;;;;;;;10.15;3.03;;;;;;;12.34;100.00;102290.72;10425427;28;20037;-82
2022/09/01 04:36:24;;;;;;;3.05;2.08;;;;;;;12.35;100.00;102270.31;10440927;28;20043;-81
2022/09/01 04:41:26;;;;;;;3.03;2.30;;;;;;;12.48;100.00;102283.94;10387394;28;20053;-81
2022/09/01 04:46:30;;;;;;;3.63;1.75;;;;;;;12.48;100.00;102272.88;10365512;28;20061;-82
2022/09/01 04:51:31;;;;;;;2.08;1.73;;;;;;;12.56;100.00;102286.38;10358959;28;20076;-82
2022/09/01 04:56:34;;;;;;;4.00;2.10;;;;;;;12.60;100.00;102293.13;10382010;28;20064;-81
2022/09/01 05:01:42;;;;;;;2.85;2.22;;;;;;;12.52;100.00;102268.59;10355784;28;20076;-82
2022/09/01 05:06:48;;;;;;;2.28;1.90;;;;;;;12.54;100.00;102265.59;10398887;28;20120;-81
2022/09/01 05:11:48;;;;;;;2.63;1.70;;;;;;;12.65;100.00;102284.13;10397262;28;20485;-83
2022/09/01 05:16:49;;;;;;;2.47;1.77;;;;;;;12.74;100.00;102273.63;10414505;28;20052;-82
2022/09/01 05:21:50;;;;;;;2.85;1.90;;;;;;;12.97;100.00;102294.97;10380781;28;20501;-83
2022/09/01 05:26:51;;;;;;;3.85;2.22;;;;;;;13.00;100.00;102284.28;10397407;28;20048;-82
2022/09/01 05:31:53;;;;;;;2.63;1.83;;;;;;;13.06;100.00;102280.56;10412124;28;20044;-82
2022/09/01 05:36:56;;;;;;;3.05;2.00;;;;;;;13.04;100.00;102266.16;10421928;28;20068;-82
2022/09/01 05:41:58;;;;;;;3.35;1.67;;;;;;;13.21;100.00;102284.78;10379597;28;20037;-81
2022/09/01 05:46:58;;;;;;;4.88;1.88;;;;;;;13.03;100.00;102263.59;10396795;28;20068;-82
2022/09/01 05:51:59;;;;;;;5.72;2.00;;;;;;;13.29;100.00;102295.53;10380031;28;20034;-81
2022/09/01 05:57:01;;;;;;;2.72;2.10;;;;;;;13.41;100.00;102281.72;10409115;28;20409;-81
2022/09/01 06:02:02;;;;;;;7.15;2.20;;;;;;;13.56;100.00;102272.94;10404858;28;20381;-82
2022/09/01 06:07:08;;;;;;;3.50;1.77;;;;;;;13.84;100.00;102308.22;10437135;28;20156;-81
2022/09/01 06:12:16;;;;;;;3.20;2.00;;;;;;;14.03;100.00;102292.31;10403918;28;20064;-82
2022/09/01 06:17:18;;;;;;;5.85;3.33;;;;;;;14.46;100.00;102288.22;10387786;28;20038;-83
2022/09/01 06:22:19;;;;;;;5.13;1.70;;;;;;;14.75;100.00;102297.44;10371243;28;20097;-82
2022/09/01 06:27:20;;;;;;;8.80;1.90;;;;;;;14.68;100.00;102282.91;10420493;28;20044;-80
2022/09/01 06:32:20;;;;;;;2.67;1.88;;;;;;;14.84;100.00;102295.09;10387895;28;20033;-80
2022/09/01 06:37:21;;;;;;;4.70;2.22;;;;;;;14.81;100.00;102290.06;10396728;28;20053;-81
2022/09/01 06:42:22;;;;;;;3.15;1.92;;;;;;;14.81;100.00;102278.97;10419488;28;20391;-81
2022/09/01 06:47:23;;;;;;;5.47;1.75;;;;;;;15.05;100.00;102302.72;10421646;28;20096;-82
2022/09/01 06:52:24;;;;;;;4.28;2.05;;;;;;;15.39;100.00;102324.09;10408483;28;20405;-81
2022/09/01 06:57:26;;;;;;;4.65;2.03;;;;;;;15.60;100.00;102325.28;10420709;28;20033;-80
2022/09/01 07:02:29;;;;;;;2.85;1.70;;;;;;;15.78;100.00;102313.94;10423016;28;20025;-81
2022/09/01 07:07:33;;;;;;;3.03;1.92;;;;;;;16.35;100.00;102335.03;10420618;28;20037;-82
2022/09/01 07:12:34;;;;;;;4.43;1.60;;;;;;;16.57;100.00;102310.00;10412016;28;20478;-81
2022/09/01 07:17:34;;;;;;;2.38;1.63;;;;;;;16.70;100.00;102331.88;10366868;28;20034;-81
2022/09/01 07:22:34;;;;;;;2.75;1.55;;;;;;;16.93;100.00;102333.53;10400994;28;20036;-82
2022/09/01 07:27:35;;;;;;;2.05;1.45;;;;;;;17.27;100.00;102329.69;10417532;28;20034;-81
2022/09/01 07:32:37;;;;;;;3.97;1.65;;;;;;;17.36;100.00;102308.59;10423121;28;20037;-82
2022/09/01 07:37:38;;;;;;;2.92;1.50;;;;;;;17.74;100.00;102303.91;10425644;28;20109;-81
2022/09/01 07:42:39;;;;;;;1.48;1.05;;;;;;;18.06;100.00;102311.38;10424373;28;20048;-80
2022/09/01 07:47:39;;;;;;;3.00;1.48;;;;;;;18.02;100.00;102313.03;10440180;28;20116;-80
2022/09/01 07:52:43;;;;;;;2.50;2.30;;;;;;;17.94;100.00;102314.34;10441796;28;20056;-82
2022/09/01 07:57:44;;;;;;;1.50;1.20;;;;;;;17.97;100.00;102321.38;10441723;28;20029;-81
2022/09/01 08:02:45;;;;;;;5.05;1.40;;;;;;;17.99;100.00;102328.34;10434250;28;20047;-85
2022/09/01 08:07:47;;;;;;;2.88;1.40;;;;;;;18.13;100.00;102320.34;10401129;28;20523;-80
2022/09/01 08:12:48;;;;;;;3.75;1.20;;;;;;;18.19;100.00;102304.47;10454651;28;20048;-81
2022/09/01 08:17:48;;;;;;;3.63;1.60;;;;;;;18.23;100.00;102300.88;10440370;28;20057;-82
2022/09/01 08:22:49;;;;;;;1.58;1.00;;;;;;;18.42;100.00;102300.38;10422584;28;20060;-80
2022/09/01 08:27:49;;;;;;;3.03;0.88;;;;;;;18.63;100.00;102302.16;10456617;28;20079;-82
2022/09/01 08:32:50;;;;;;;4.63;1.52;;;;;;;18.98;100.00;102322.09;10440417;28;20072;-81
2022/09/01 08:37:51;;;;;;;5.93;1.15;;;;;;;19.26;100.00;102315.13;10429410;28;20038;-80
2022/09/01 08:43:16;;;;;;;3.05;0.90;;;;;;;19.53;100.00;102312.91;10373658;28;20052;-79
2022/09/01 08:48:17;;;;;;;6.70;1.10;;;;;;;19.83;100.00;102308.44;10415380;28;20061;-79
2022/09/01 08:53:25;;;;;;;2.60;1.00;;;;;;;20.11;100.00;102311.72;10439949;28;20037;-80
2022/09/01 08:58:29;;;;;;;2.47;1.10;;;;;;;20.35;100.00;102312.75;10439493;28;20508;-80
2022/09/01 09:03:39;;;;;;;2.03;0.70;;;;;;;20.47;100.00;102308.81;10438218;28;20043;-79
2022/09/01 09:08:55;;;;;;;1.95;0.85;;;;;;;20.56;100.00;102293.91;10455243;28;20040;-79
2022/09/01 09:14:24;;;;;;;1.80;1.00;;;;;;;21.01;98.90;102302.38;10395825;28;20042;-79
2022/09/01 09:19:28;;;;;;;1.35;0.57;;;;;;;21.25;93.42;102273.59;10406380;28;20069;-80
2022/09/01 09:24:46;;;;;;;2.10;0.70;;;;;;;21.49;91.99;102274.53;10380674;28;20048;-80
2022/09/01 09:29:52;;;;;;;1.50;0.60;;;;;;;21.59;89.92;102265.22;10373933;28;20030;-80
2022/09/01 09:34:52;;;;;;;1.67;0.70;;;;;;;21.74;88.96;102258.59;10356087;28;20033;-80
2022/09/01 09:40:14;;;;;;;1.98;0.52;;;;;;;21.95;86.72;102262.88;10340104;28;20033;-81
2022/09/01 09:45:23;;;;;;;0.63;0.50;;;;;;;22.03;86.76;102254.91;10338572;28;20045;-81
2022/09/01 09:50:25;;;;;;;4.70;0.70;;;;;;;22.17;84.63;102253.06;10351124;28;20117;-83
2022/09/01 09:55:27;;;;;;;2.85;0.70;;;;;;;22.32;81.90;102241.66;10368980;28;20053;-79
2022/09/01 10:00:29;;;;;;;3.30;0.88;;;;;;;22.32;80.86;102240.84;10390675;28;20049;-80
2022/09/01 10:05:40;;;;;;;2.33;0.55;;;;;;;22.60;80.67;102244.66;10354583;28;20528;-83
2022/09/01 10:10:46;;;;;;;1.50;0.50;;;;;;;22.68;78.76;102220.69;10407486;28;20045;-82
2022/09/01 10:15:48;;;;;;;3.22;0.93;;;;;;;22.82;76.81;102209.50;10392663;28;20030;-82
2022/09/01 10:21:08;;;;;;;2.33;0.50;;;;;;;23.07;74.67;102223.19;10392870;28;20076;-79
2022/09/01 10:26:10;;;;;;;1.13;0.57;;;;;;;23.34;71.97;102201.94;10408905;28;20037;-82
2022/09/01 10:31:11;;;;;;;3.05;0.40;;;;;;;23.47;69.23;102175.81;10409130;28;20041;-78
2022/09/01 10:36:11;;;;;;;1.23;0.60;;;;;;;23.68;66.82;102190.28;10369167;28;20034;-81
2022/09/01 10:41:36;;;;;;;2.25;0.60;;;;;;;23.95;67.97;102186.66;10351600;28;20042;-83
2022/09/01 10:46:36;;;;;;;3.53;0.60;;;;;;;24.00;66.84;102188.56;10441434;28;20041;-82
2022/09/01 10:51:42;;;;;;;3.45;0.52;;;;;;;23.84;67.00;102182.41;10408218;28;20048;-83
2022/09/01 10:56:46;;;;;;;3.90;0.60;;;;;;;23.23;63.62;102169.53;10392442;28;20060;-81
2022/09/01 11:01:47;;;;;;;3.55;0.70;;;;;;;22.57;65.64;102186.31;10386936;28;20269;-82
2022/09/01 11:06:52;;;;;;;1.33;0.30;;;;;;;22.48;64.67;102165.69;10420268;28;20042;-81
2022/09/01 11:11:52;;;;;;;4.13;0.50;;;;;;;23.41;64.81;102168.63;10453403;28;20041;-82
2022/09/01 11:17:19;;;;;;;1.15;0.45;;;;;;;24.33;64.02;102163.06;10434080;28;20041;-82
2022/09/01 11:22:34;;;;;;;1.25;0.40;;;;;;;24.43;60.46;102128.22;10383680;28;20048;-83
2022/09/01 11:27:47;;;;;;;1.33;0.80;;;;;;;23.82;60.71;102153.78;10385317;28;20038;-80
2022/09/01 11:32:50;;;;;;;2.50;0.32;;;;;;;23.36;59.77;102140.63;10376568;28;20044;-81
2022/09/01 11:37:53;;;;;;;2.97;0.47;;;;;;;23.46;60.11;102112.34;10385055;28;20038;-80
2022/09/01 11:42:55;;;;;;;1.85;0.55;;;;;;;24.43;57.72;102133.84;10416494;28;20061;-80
2022/09/01 11:48:05;;;;;;;3.05;0.57;;;;;;;24.98;57.41;102123.16;10415539;28;20052;-80
2022/09/01 11:53:13;;;;;;;5.90;0.50;;;;;;;25.33;56.80;102126.19;10435570;28;20421;-80
2022/09/01 11:58:31;;;;;;;1.63;0.60;;;;;;;25.64;56.57;102113.22;10439624;28;20036;-80
2022/09/01 12:03:32;;;;;;;4.15;0.40;;;;;;;26.50;53.75;102114.47;10382070;28;20041;-80
2022/09/01 12:08:35;;;;;;;1.98;0.60;;;;;;;26.47;53.78;102092.56;10369534;28;20041;-80
2022/09/01 12:13:36;;;;;;;2.55;0.60;;;;;;;27.49;52.22;102096.63;10438482;28;20025;-80
2022/09/01 12:18:46;;;;;;;1.75;0.60;;;;;;;28.30;49.94;102092.63;10424059;28;20056;-79
2022/09/01 12:23:46;;;;;;;2.72;0.60;;;;;;;26.46;50.80;102073.94;10407635;28;20048;-80
2022/09/01 12:28:48;;;;;;;2.65;0.80;;;;;;;26.71;51.46;102092.09;10406516;28;20045;-80
2022/09/01 12:33:49;;;;;;;1.65;0.60;;;;;;;27.34;48.34;102076.25;10439121;28;20502;-81
2022/09/01 12:38:51;;;;;;;3.92;0.65;;;;;;;27.09;49.90;102080.81;10422385;28;20155;-82
2022/09/01 12:43:52;;;;;;;3.17;0.63;;;;;;;26.09;50.94;102084.78;10386607;28;20033;-81
2022/09/01 12:48:52;;;;;;;0.70;0.50;;;;;;;27.05;48.93;102077.00;10352504;28;20057;-80
2022/09/01 12:53:55;;;;;;;3.15;0.40;;;;;;;28.67;46.68;102057.94;10373768;28;20052;-79
2022/09/01 12:59:13;;;;;;;2.00;0.40;;;;;;;29.54;43.68;102051.19;10373322;28;20034;-81
2022/09/01 13:04:24;;;;;;;7.00;0.50;;;;;;;29.53;43.24;102044.69;10394605;28;20391;-80
2022/09/01 13:09:24;;;;;;;2.45;0.40;;;;;;;28.11;44.80;102063.94;10396246;28;20045;-81
2022/09/01 13:14:25;;;;;;;5.43;0.73;;;;;;;27.36;46.33;102059.75;10377380;28;20053;-84
2022/09/01 13:19:25;;;;;;;4.13;0.50;;;;;;;28.46;44.34;102043.81;10323797;28;20401;-82
2022/09/01 13:24:26;;;;;;;3.05;0.45;;;;;;;29.75;42.09;102028.41;10394910;28;20073;-81
2022/09/01 13:29:26;;;;;;;1.25;0.30;;;;;;;28.26;43.42;102035.03;10380125;28;20099;-78
2022/09/01 13:34:27;;;;;;;1.70;1.10;;;;;;;26.76;46.21;102027.72;10339646;28;20038;-80
2022/09/01 13:39:27;;;;;;;2.10;0.57;;;;;;;27.93;44.80;102027.31;10322946;28;20060;-79
2022/09/01 13:44:28;;;;;;;0.80;0.40;;;;;;;29.31;42.89;102013.97;10339755;28;20053;-84
2022/09/01 13:49:30;;;;;;;2.20;0.40;;;;;;;28.30;41.09;101982.19;10354442;28;20045;-79
2022/09/01 13:54:30;;;;;;;1.48;0.45;;;;;;;28.35;44.01;102000.94;10322939;28;20034;-80
2022/09/01 13:59:31;;;;;;;2.28;0.35;;;;;;;29.06;40.93;101940.25;10339320;28;20038;-76
2022/09/01 14:04:32;;;;;;;1.42;0.22;;;;;;;30.15;39.64;101982.09;10393897;28;20069;-80
2022/09/01 14:09:33;;;;;;;4.28;0.50;;;;;;;30.54;39.10;101979.56;10378100;28;20043;-79
2022/09/01 14:14:33;;;;;;;6.28;0.50;;;;;;;30.47;38.24;101967.97;10404166;28;20043;-79
2022/09/01 14:19:35;;;;;;;4.30;0.80;;;;;;;30.65;37.33;101945.72;10346106;28;20034;-80
2022/09/01 14:24:36;;;;;;;1.20;0.45;;;;;;;30.82;36.81;101944.53;10354158;28;20038;-79
2022/09/01 14:29:37;;;;;;;0.95;0.47;;;;;;;29.09;39.04;101953.72;10353840;28;20465;-81
2022/09/01 14:34:37;;;;;;;1.33;0.45;;;;;;;29.44;38.93;101956.06;10340624;28;20030;-79
2022/09/01 14:39:38;;;;;;;4.60;1.00;;;;;;;27.77;39.46;101950.66;10364742;28;20119;-79
2022/09/01 14:44:38;;;;;;;2.75;0.80;;;;;;;26.31;42.38;101982.97;10420914;28;20049;-79
2022/09/01 14:49:40;;;;;;;5.68;0.75;;;;;;;25.74;44.77;101980.34;10402879;28;20049;-78
2022/09/01 14:54:41;;;;;;;2.88;0.40;;;;;;;27.13;42.94;101951.78;10385912;28;20034;-79
2022/09/01 14:59:41;;;;;;;1.30;0.30;;;;;;;28.70;41.22;101944.75;10369574;28;20483;-80
2022/09/01 15:04:42;;;;;;;2.60;0.57;;;;;;;29.40;37.87;101920.28;10343484;28;20046;-78
2022/09/01 15:09:42;;;;;;;2.45;0.40;;;;;;;29.46;36.91;101916.81;10398456;28;20053;-78
2022/09/01 15:14:43;;;;;;;1.52;0.50;;;;;;;29.66;36.07;101916.97;10384853;28;20026;-79
2022/09/01 15:19:43;;;;;;;2.30;0.38;;;;;;;30.57;35.49;101899.25;10368729;28;20042;-79
2022/09/01 15:24:44;;;;;;;4.15;0.52;;;;;;;30.58;35.65;101890.34;10399379;28;20045;-79
2022/09/01 15:29:45;;;;;;;1.67;0.30;;;;;;;30.82;35.31;101896.19;10367261;28;20060;-79
2022/09/01 15:34:45;;;;;;;2.00;0.50;;;;;;;30.89;35.31;101897.22;10384514;28;20025;-79
2022/09/01 15:39:46;;;;;;;2.92;0.45;;;;;;;30.63;34.78;101886.41;10438138;28;20506;-79
2022/09/01 15:44:46;;;;;;;2.15;0.50;;;;;;;29.83;35.42;101882.66;10369273;28;20115;-79
2022/09/01 15:49:47;;;;;;;1.42;0.45;;;;;;;28.80;36.42;101894.47;10453186;28;20072;-79
2022/09/01 15:54:47;;;;;;;2.65;0.40;;;;;;;29.00;36.22;101889.81;10457613;28;20056;-81
2022/09/01 15:59:48;;;;;;;0.90;0.30;;;;;;;28.21;36.21;101882.31;10407869;28;20040;-77
2022/09/01 16:04:48;;;;;;;1.10;0.50;;;;;;;27.08;38.81;101898.28;10424700;28;21015;-79
2022/09/01 16:09:48;;;;;;;2.50;0.50;;;;;;;25.74;40.81;101898.56;10423002;28;20040;-78
2022/09/01 16:14:50;;;;;;;1.23;0.30;;;;;;;24.91;42.16;101903.09;10371690;28;20042;-79
2022/09/01 16:20:03;;;;;;;0.57;0.20;;;;;;;23.94;43.43;101903.75;10373914;28;20034;-78
2022/09/01 16:25:18;;;;;;;1.95;0.40;;;;;;;23.64;44.20;101910.13;10380768;28;20048;-79
2022/09/01 16:30:28;;;;;;;3.43;0.40;;;;;;;23.16;44.25;101900.25;10382569;28;20068;-79
2022/09/01 16:35:43;;;;;;;1.00;0.30;;;;;;;22.94;45.87;101913.06;10382499;28;20053;-78
2022/09/01 16:40:43;;;;;;;8.18;1.20;;;;;;;22.65;46.36;101913.34;10391180;28;20045;-80
2022/09/01 16:45:57;;;;;;;5.03;0.47;;;;;;;22.50;47.93;101930.50;10437339;28;20041;-78
2022/09/01 16:51:24;;;;;;;3.72;0.52;;;;;;;22.30;48.68;101918.53;10452195;28;20033;-78
2022/09/01 16:56:46;;;;;;;1.98;0.38;;;;;;;22.05;49.13;101927.38;10429364;28;20037;-78
2022/09/01 17:01:57;;;;;;;0.98;0.50;;;;;;;21.76;49.95;101911.56;10455051;28;20048;-78
2022/09/01 17:07:13;;;;;;;1.42;0.30;;;;;;;21.55;49.52;101909.09;10406794;28;20047;-77
2022/09/01 17:12:32;;;;;;;0.32;0.22;;;;;;;21.56;51.12;101932.38;10412255;28;20097;-79
2022/09/01 17:18:07;;;;;;;2.35;0.63;;;;;;;21.43;51.67;101935.91;10380875;28;20264;-78
2022/09/01 17:23:10;;;;;;;1.15;0.40;;;;;;;21.02;52.16;101895.25;10383012;28;20064;-79
2022/09/01 17:28:14;;;;;;;1.90;0.35;;;;;;;21.00;52.29;101925.56;10364392;28;20040;-79
2022/09/01 17:33:46;;;;;;;2.63;0.30;;;;;;;20.90;52.87;101937.69;10396124;28;20048;-77
2022/09/01 17:39:04;;;;;;;8.07;0.50;;;;;;;20.69;53.24;101941.84;10398635;28;20045;-78
2022/09/01 17:44:20;;;;;;;1.27;0.40;;;;;;;20.55;53.75;101947.31;10420240;28;20052;-79
2022/09/01 17:49:33;;;;;;;1.42;0.40;;;;;;;20.41;54.48;101946.34;10445331;28;20054;-79
2022/09/01 17:54:45;;;;;;;3.08;0.30;;;;;;;20.05;54.97;101924.28;10395051;28;20029;-79
2022/09/01 17:59:51;;;;;;;1.08;0.50;;;;;;;20.00;55.24;101947.53;10390540;28;20084;-79
2022/09/01 18:05:19;;;;;;;6.88;0.47;;;;;;;19.81;55.99;101944.59;10419200;28;20053;-79
2022/09/01 18:10:37;;;;;;;1.02;0.40;;;;;;;19.35;56.04;101903.81;10423853;28;20087;-80
2022/09/01 18:15:50;;;;;;;1.60;0.50;;;;;;;19.36;56.63;101932.56;10428508;28;20170;-78
2022/09/01 18:20:50;;;;;;;1.20;0.50;;;;;;;19.35;60.50;101983.97;10413378;28;20053;-78
2022/09/01 18:25:58;;;;;;;5.35;0.75;;;;;;;19.13;68.87;101989.94;10411262;28;20049;-79
2022/09/01 18:31:22;;;;;;;2.10;0.75;;;;;;;19.06;78.01;102006.97;10418736;28;20567;-80
2022/09/01 18:37:09;;;;;;;0.95;0.60;;;;;;;18.75;84.96;102001.44;10418410;28;20048;-78
2022/09/01 18:42:36;;;;;;;3.50;1.37;;;;;;;18.73;89.35;102026.00;10360154;28;20044;-80
2022/09/01 18:47:43;;;;;;;3.23;0.50;;;;;;;18.58;93.93;102023.22;10407745;28;20050;-78
2022/09/01 18:53:09;;;;;;;1.17;0.60;;;;;;;18.38;96.86;102024.09;10400641;28;20043;-79
2022/09/01 18:58:18;;;;;;;2.42;0.43;;;;;;;18.27;100.00;102031.63;10416459;28;20072;-79
2022/09/01 19:03:51;;;;;;;4.28;0.85;;;;;;;18.14;100.00;102034.94;10402696;28;20180;-77
2022/09/01 19:08:54;;;;;;;2.83;0.55;;;;;;;18.00;100.00;102033.81;10412960;28;20104;-79
2022/09/01 19:14:00;;;;;;;2.75;0.80;;;;;;;17.88;100.00;102037.69;10375487;28;20060;-79
2022/09/01 19:19:18;;;;;;;2.38;0.77;;;;;;;17.80;100.00;102040.13;10358415;28;20041;-79
2022/09/01 19:24:24;;;;;;;5.18;0.60;;;;;;;17.28;100.00;101967.63;10359096;28;20042;-79
2022/09/01 19:29:37;;;;;;;3.35;0.70;;;;;;;17.50;100.00;102033.38;10396901;28;20045;-79
2022/09/01 19:34:48;;;;;;;2.67;0.70;;;;;;;17.38;100.00;102028.03;10382872;28;20046;-79
2022/09/01 19:39:50;;;;;;;2.45;0.75;;;;;;;17.24;100.00;102030.50;10383616;28;20048;-79
2022/09/01 19:45:14;;;;;;;1.92;0.70;;;;;;;17.18;100.00;102037.16;10368219;28;20068;-79
2022/09/01 19:50:40;;;;;;;4.10;1.08;;;;;;;17.11;100.00;102040.16;10383342;28;20045;-78
2022/09/01 19:55:51;;;;;;;2.70;1.48;;;;;;;17.03;100.00;102049.03;10439189;28;20049;-81
2022/09/01 20:00:57;;;;;;;2.17;0.80;;;;;;;16.99;100.00;102047.91;10389029;28;20042;-81
2022/09/01 20:06:09;;;;;;;6.78;1.80;;;;;;;16.88;100.00;102049.75;10358030;28;20041;-79
2022/09/01 20:11:13;;;;;;;2.05;1.08;;;;;;;16.79;100.00;102047.72;10363749;28;20055;-79
2022/09/01 20:16:34;;;;;;;2.65;1.08;;;;;;;16.71;100.00;102058.22;10395738;28;20038;-79
2022/09/01 20:21:38;;;;;;;6.22;1.80;;;;;;;16.59;100.00;102060.34;10414342;28;20057;-79
2022/09/01 20:27:04;;;;;;;5.85;1.35;;;;;;;16.39;100.00;102049.06;10395685;28;20207;-76
2022/09/01 20:32:04;;;;;;;3.38;1.10;;;;;;;16.33;100.00;102057.38;10386495;28;20038;-77
2022/09/01 20:37:13;;;;;;;2.00;1.08;;;;;;;16.23;100.00;102043.41;10401916;28;20053;-77
2022/09/01 20:42:18;;;;;;;2.45;1.10;;;;;;;16.17;100.00;102061.13;10432150;28;20029;-77
2022/09/01 20:47:20;;;;;;;5.07;1.00;;;;;;;16.01;100.00;102056.50;10378434;28;20053;-77
2022/09/01 20:52:27;;;;;;;4.07;1.23;;;;;;;16.00;100.00;102063.16;10390902;28;20115;-77
2022/09/01 20:57:36;;;;;;;3.08;1.73;;;;;;;15.88;100.00;102069.72;10427474;28;20053;-77
2022/09/01 21:03:01;;;;;;;3.10;1.60;;;;;;;15.74;100.00;102068.44;10394950;28;20382;-77
2022/09/01 21:08:13;;;;;;;3.90;1.20;;;;;;;15.58;100.00;102049.88;10370902;28;20034;-78
2022/09/01 21:13:51;;;;;;;3.50;1.00;;;;;;;15.67;100.00;102062.22;10411237;28;20101;-79
2022/09/01 21:19:13;;;;;;;2.33;1.10;;;;;;;15.60;100.00;102058.78;10415370;28;20053;-77
2022/09/01 21:24:13;;;;;;;3.33;1.30;;;;;;;15.36;100.00;102047.09;10399498;28;20045;-84
2022/09/01 21:29:36;;;;;;;5.00;1.25;;;;;;;15.32;100.00;102055.13;10382855;28;20149;-78
2022/09/01 21:34:36;;;;;;;2.13;1.30;;;;;;;15.14;100.00;102053.50;10411381;28;20048;-77
2022/09/01 21:39:37;;;;;;;3.60;1.20;;;;;;;15.09;100.00;102059.00;10401613;28;20093;-78
2022/09/01 21:44:37;;;;;;;1.30;1.20;;;;;;;14.99;100.00;102056.91;10408131;28;20040;-78
2022/09/01 21:49:38;;;;;;;3.05;1.67;;;;;;;14.87;100.00;102064.47;10391775;28;20038;-78
2022/09/01 21:54:39;;;;;;;5.13;1.20;;;;;;;14.72;100.00;102043.75;10404787;28;20042;-78
2022/09/01 21:59:39;;;;;;;2.50;1.15;;;;;;;14.62;100.00;102040.81;10363697;28;20068;-77
2022/09/01 22:04:40;;;;;;;1.77;1.35;;;;;;;14.63;100.00;102050.78;10431653;28;20044;-77
2022/09/01 22:09:41;;;;;;;1.00;0.90;;;;;;;14.51;100.00;102059.19;10401490;28;20033;-78
2022/09/01 22:14:42;;;;;;;2.10;1.10;;;;;;;14.48;100.00;102064.38;10401073;28;20409;-77
2022/09/01 22:19:42;;;;;;;2.03;1.23;;;;;;;14.41;100.00;102058.19;10392571;28;20042;-77
2022/09/01 22:24:43;;;;;;;6.43;1.30;;;;;;;14.36;100.00;102060.84;10390066;28;20057;-77
2022/09/01 22:29:44;;;;;;;1.95;1.10;;;;;;;14.34;100.00;102063.88;10361507;28;20041;-78
2022/09/01 22:34:45;;;;;;;1.48;1.00;;;;;;;14.29;100.00;102061.84;10376990;28;20079;-75
2022/09/01 22:39:45;;;;;;;4.03;1.02;;;;;;;14.30;100.00;102071.00;10392084;28;20038;-77
2022/09/01 22:44:46;;;;;;;2.78;0.90;;;;;;;14.23;100.00;102057.31;10382308;28;20455;-77
2022/09/01 22:49:47;;;;;;;1.10;0.93;;;;;;;14.13;100.00;102046.06;10381234;28;20037;-77
2022/09/01 22:54:47;;;;;;;3.67;0.93;;;;;;;14.27;100.00;102064.03;10411184;28;20064;-77
2022/09/01 22:59:48;;;;;;;3.53;1.05;;;;;;;14.26;100.00;102056.81;10383712;28;20029;-77
2022/09/01 23:04:49;;;;;;;3.92;1.17;;;;;;;14.11;100.00;102031.63;10400036;28;20029;-77
2022/09/01 23:09:49;;;;;;;3.85;0.98;;;;;;;14.13;100.00;102037.75;10369017;28;20240;-77
2022/09/01 23:14:50;;;;;;;2.30;0.90;;;;;;;13.76;100.00;101991.13;10382147;28;20512;-77